sensor_id;sensor_type;location;lat;lon;timestamp;pressure;altitude;pressure_sealevel;temperature;humidity
46223;BME280;31943;51.410;7.564;2023-08-20T00:00:34;100775.28;;;21.74;70.49
46223;BME280;31943;51.410;7.564;2023-08-20T00:03:03;100770.88;;;21.73;70.68
46223;BME280;31943;51.410;7.564;2023-08-20T00:05:33;100773.53;;;21.73;70.07
46223;BME280;31943;51.410;7.564;2023-08-20T00:07:59;100778.00;;;21.71;70.54
46223;BME280;31943;51.410;7.564;2023-08-20T00:10:26;100782.50;;;21.69;70.18
46223;BME280;31943;51.410;7.564;2023-08-20T00:12:52;100784.34;;;21.65;70.22
46223;BME280;31943;51.410;7.564;2023-08-20T00:15:17;100789.66;;;21.65;70.28
46223;BME280;31943;51.410;7.564;2023-08-20T00:17:43;100779.97;;;21.64;70.24
46223;BME280;31943;51.410;7.564;2023-08-20T00:20:10;100788.88;;;21.62;70.42
46223;BME280;31943;51.410;7.564;2023-08-20T00:22:38;100795.94;;;21.63;70.24
46223;BME280;31943;51.410;7.564;2023-08-20T00:25:05;100794.19;;;21.62;70.05
46223;BME280;31943;51.410;7.564;2023-08-20T00:27:31;100796.84;;;21.62;70.24
46223;BME280;31943;51.410;7.564;2023-08-20T00:29:57;100789.81;;;21.61;70.46
46223;BME280;31943;51.410;7.564;2023-08-20T00:32:22;100796.91;;;21.60;70.21
46223;BME280;31943;51.410;7.564;2023-08-20T00:34:49;100796.94;;;21.59;70.28
46223;BME280;31943;51.410;7.564;2023-08-20T00:37:15;100796.97;;;21.57;70.37
46223;BME280;31943;51.410;7.564;2023-08-20T00:39:43;100799.59;;;21.59;70.86
46223;BME280;31943;51.410;7.564;2023-08-20T00:42:09;100800.56;;;21.56;70.81
46223;BME280;31943;51.410;7.564;2023-08-20T00:44:35;100798.75;;;21.58;70.63
46223;BME280;31943;51.410;7.564;2023-08-20T00:47:01;100804.91;;;21.59;70.59
46223;BME280;31943;51.410;7.564;2023-08-20T00:49:29;100810.22;;;21.59;70.93
46223;BME280;31943;51.410;7.564;2023-08-20T00:51:55;100804.91;;;21.59;70.80
46223;BME280;31943;51.410;7.564;2023-08-20T00:54:22;100800.50;;;21.58;70.98
46223;BME280;31943;51.410;7.564;2023-08-20T00:56:51;100792.50;;;21.59;71.13
46223;BME280;31943;51.410;7.564;2023-08-20T00:59:18;100789.84;;;21.59;71.48
46223;BME280;31943;51.410;7.564;2023-08-20T01:01:44;100787.19;;;21.59;71.64
46223;BME280;31943;51.410;7.564;2023-08-20T01:04:09;100791.63;;;21.59;71.27
46223;BME280;31943;51.410;7.564;2023-08-20T01:06:41;100785.38;;;21.60;71.78
46223;BME280;31943;51.410;7.564;2023-08-20T01:09:15;100779.22;;;21.59;71.74
46223;BME280;31943;51.410;7.564;2023-08-20T01:11:47;100778.34;;;21.59;71.03
46223;BME280;31943;51.410;7.564;2023-08-20T01:14:17;100772.19;;;21.58;71.44
46223;BME280;31943;51.410;7.564;2023-08-20T01:16:43;100769.47;;;21.60;70.88
46223;BME280;31943;51.410;7.564;2023-08-20T01:19:15;100770.28;;;21.62;70.85
46223;BME280;31943;51.410;7.564;2023-08-20T01:21:51;100766.81;;;21.60;71.23
46223;BME280;31943;51.410;7.564;2023-08-20T01:24:29;100750.94;;;21.58;70.82
46223;BME280;31943;51.410;7.564;2023-08-20T01:27:14;100750.97;;;21.57;71.27
46223;BME280;31943;51.410;7.564;2023-08-20T01:29:46;100761.66;;;21.53;70.92
46223;BME280;31943;51.410;7.564;2023-08-20T01:32:12;100756.50;;;21.49;71.53
46223;BME280;31943;51.410;7.564;2023-08-20T01:34:38;100756.59;;;21.44;71.17
46223;BME280;31943;51.410;7.564;2023-08-20T01:37:04;100756.66;;;21.41;71.43
46223;BME280;31943;51.410;7.564;2023-08-20T01:39:29;100756.69;;;21.40;71.48
46223;BME280;31943;51.410;7.564;2023-08-20T01:41:55;100767.34;;;21.38;71.17
46223;BME280;31943;51.410;7.564;2023-08-20T01:44:21;100765.63;;;21.37;71.14
46223;BME280;31943;51.410;7.564;2023-08-20T01:46:48;100762.97;;;21.37;71.07
46223;BME280;31943;51.410;7.564;2023-08-20T01:49:14;100770.09;;;21.35;71.25
46223;BME280;31943;51.410;7.564;2023-08-20T01:51:40;100771.00;;;21.34;70.97
46223;BME280;31943;51.410;7.564;2023-08-20T01:54:06;100776.34;;;21.32;71.25
46223;BME280;31943;51.410;7.564;2023-08-20T01:56:31;100771.09;;;21.31;71.29
46223;BME280;31943;51.410;7.564;2023-08-20T01:58:57;100767.63;;;21.29;70.75
46223;BME280;31943;51.410;7.564;2023-08-20T02:01:23;100774.75;;;21.27;70.93
46223;BME280;31943;51.410;7.564;2023-08-20T02:03:50;100783.72;;;21.21;71.12
46223;BME280;31943;51.410;7.564;2023-08-20T02:06:16;100782.00;;;21.19;71.14
46223;BME280;31943;51.410;7.564;2023-08-20T02:08:42;100792.72;;;21.16;71.35
46223;BME280;31943;51.410;7.564;2023-08-20T02:11:07;100787.50;;;21.11;71.62
46223;BME280;31943;51.410;7.564;2023-08-20T02:13:33;100785.06;;;21.03;71.69
46223;BME280;31943;51.410;7.564;2023-08-20T02:16:00;100784.28;;;21.00;71.74
46223;BME280;31943;51.410;7.564;2023-08-20T02:18:26;100793.22;;;20.96;71.91
46223;BME280;31943;51.410;7.564;2023-08-20T02:20:53;100781.72;;;20.95;71.83
46223;BME280;31943;51.410;7.564;2023-08-20T02:23:19;100778.13;;;20.98;72.10
46223;BME280;31943;51.410;7.564;2023-08-20T02:25:46;100775.47;;;20.98;71.71
46223;BME280;31943;51.410;7.564;2023-08-20T02:28:12;100782.50;;;20.99;71.83
46223;BME280;31943;51.410;7.564;2023-08-20T02:30:40;100779.00;;;20.98;71.48
46223;BME280;31943;51.410;7.564;2023-08-20T02:33:05;100779.88;;;20.97;71.24
46223;BME280;31943;51.410;7.564;2023-08-20T02:35:31;100784.31;;;20.98;70.96
46223;BME280;31943;51.410;7.564;2023-08-20T02:37:59;100788.69;;;20.99;70.74
46223;BME280;31943;51.410;7.564;2023-08-20T02:40:25;100784.34;;;20.97;70.95
46223;BME280;31943;51.410;7.564;2023-08-20T02:42:50;100779.06;;;20.95;71.23
46223;BME280;31943;51.410;7.564;2023-08-20T02:45:16;100787.09;;;20.92;71.14
46223;BME280;31943;51.410;7.564;2023-08-20T02:47:41;100783.63;;;20.90;70.80
46223;BME280;31943;51.410;7.564;2023-08-20T02:50:08;100791.59;;;20.88;70.78
46223;BME280;31943;51.410;7.564;2023-08-20T02:52:34;100800.47;;;20.87;70.47
46223;BME280;31943;51.410;7.564;2023-08-20T02:55:01;100800.47;;;20.87;70.72
46223;BME280;31943;51.410;7.564;2023-08-20T02:57:27;100801.38;;;20.86;70.85
46223;BME280;31943;51.410;7.564;2023-08-20T02:59:52;100809.34;;;20.86;71.17
46223;BME280;31943;51.410;7.564;2023-08-20T03:02:18;100820.84;;;20.85;71.63
46223;BME280;31943;51.410;7.564;2023-08-20T03:04:44;100820.81;;;20.87;71.30
46223;BME280;31943;51.410;7.564;2023-08-20T03:07:09;100816.38;;;20.87;71.60
46223;BME280;31943;51.410;7.564;2023-08-20T03:09:35;100826.09;;;20.88;71.81
46223;BME280;31943;51.410;7.564;2023-08-20T03:12:03;100825.13;;;20.91;71.67
46223;BME280;31943;51.410;7.564;2023-08-20T03:14:29;100825.13;;;20.91;71.49
46223;BME280;31943;51.410;7.564;2023-08-20T03:16:55;100822.47;;;20.91;72.10
46223;BME280;31943;51.410;7.564;2023-08-20T03:19:20;100827.78;;;20.91;71.85
46223;BME280;31943;51.410;7.564;2023-08-20T03:21:46;100816.31;;;20.90;72.00
46223;BME280;31943;51.410;7.564;2023-08-20T03:24:11;100821.63;;;20.90;72.05
46223;BME280;31943;51.410;7.564;2023-08-20T03:26:37;100817.22;;;20.89;71.61
46223;BME280;31943;51.410;7.564;2023-08-20T03:29:04;100817.19;;;20.91;71.60
46223;BME280;31943;51.410;7.564;2023-08-20T03:31:30;100813.72;;;20.87;72.00
46223;BME280;31943;51.410;7.564;2023-08-20T03:33:57;100819.09;;;20.86;72.07
46223;BME280;31943;51.410;7.564;2023-08-20T03:36:23;100813.81;;;20.84;71.89
46223;BME280;31943;51.410;7.564;2023-08-20T03:38:49;100820.25;;;20.74;72.06
46223;BME280;31943;51.410;7.564;2023-08-20T03:41:14;100817.81;;;20.63;72.10
46223;BME280;31943;51.410;7.564;2023-08-20T03:43:40;100820.56;;;20.60;72.77
46223;BME280;31943;51.410;7.564;2023-08-20T03:46:08;100812.59;;;20.60;72.57
46223;BME280;31943;51.410;7.564;2023-08-20T03:48:33;100814.34;;;20.61;72.72
46223;BME280;31943;51.410;7.564;2023-08-20T03:50:59;100824.06;;;20.62;72.22
46223;BME280;31943;51.410;7.564;2023-08-20T03:53:24;100824.91;;;20.63;72.27
46223;BME280;31943;51.410;7.564;2023-08-20T03:55:50;100822.25;;;20.63;72.08
46223;BME280;31943;51.410;7.564;2023-08-20T03:58:16;100829.28;;;20.64;72.35
46223;BME280;31943;51.410;7.564;2023-08-20T04:00:42;100827.56;;;20.63;72.11
46223;BME280;31943;51.410;7.564;2023-08-20T04:03:09;100827.59;;;20.61;71.39
46223;BME280;31943;51.410;7.564;2023-08-20T04:05:36;100834.72;;;20.59;71.29
46223;BME280;31943;51.410;7.564;2023-08-20T04:08:02;100833.81;;;20.60;71.50
46223;BME280;31943;51.410;7.564;2023-08-20T04:10:28;100826.75;;;20.59;71.34
46223;BME280;31943;51.410;7.564;2023-08-20T04:12:53;100834.72;;;20.59;71.08
46223;BME280;31943;51.410;7.564;2023-08-20T04:15:19;100841.78;;;20.59;71.43
46223;BME280;31943;51.410;7.564;2023-08-20T04:17:45;100839.13;;;20.59;71.50
46223;BME280;31943;51.410;7.564;2023-08-20T04:20:12;100852.38;;;20.59;71.22
46223;BME280;31943;51.410;7.564;2023-08-20T04:22:38;100855.91;;;20.58;70.71
46223;BME280;31943;51.410;7.564;2023-08-20T04:25:04;100848.00;;;20.56;70.98
46223;BME280;31943;51.410;7.564;2023-08-20T04:27:30;100857.75;;;20.54;71.07
46223;BME280;31943;51.410;7.564;2023-08-20T04:29:56;100853.38;;;20.53;71.18
46223;BME280;31943;51.410;7.564;2023-08-20T04:32:22;100856.91;;;20.52;70.95
46223;BME280;31943;51.410;7.564;2023-08-20T04:34:48;100849.88;;;20.51;71.20
46223;BME280;31943;51.410;7.564;2023-08-20T04:37:15;100852.56;;;20.49;70.91
46223;BME280;31943;51.410;7.564;2023-08-20T04:39:41;100855.19;;;20.51;70.62
46223;BME280;31943;51.410;7.564;2023-08-20T04:42:06;100854.34;;;20.49;71.15
46223;BME280;31943;51.410;7.564;2023-08-20T04:44:32;100856.13;;;20.48;71.17
46223;BME280;31943;51.410;7.564;2023-08-20T04:47:00;100856.16;;;20.47;71.03
46223;BME280;31943;51.410;7.564;2023-08-20T04:49:27;100855.25;;;20.46;71.32
46223;BME280;31943;51.410;7.564;2023-08-20T04:51:54;100849.03;;;20.49;71.09
46223;BME280;31943;51.410;7.564;2023-08-20T04:54:21;100849.03;;;20.49;71.12
46223;BME280;31943;51.410;7.564;2023-08-20T04:56:47;100865.94;;;20.45;71.74
46223;BME280;31943;51.410;7.564;2023-08-20T04:59:13;100867.75;;;20.43;71.49
46223;BME280;31943;51.410;7.564;2023-08-20T05:01:39;100877.50;;;20.41;72.23
46223;BME280;31943;51.410;7.564;2023-08-20T05:04:05;100884.53;;;20.42;72.30
46223;BME280;31943;51.410;7.564;2023-08-20T05:06:30;100891.59;;;20.43;72.16
46223;BME280;31943;51.410;7.564;2023-08-20T05:08:56;100887.06;;;20.46;72.46
46223;BME280;31943;51.410;7.564;2023-08-20T05:11:23;100883.50;;;20.49;72.50
46223;BME280;31943;51.410;7.564;2023-08-20T05:13:49;100882.53;;;20.53;72.42
46223;BME280;31943;51.410;7.564;2023-08-20T05:16:15;100876.28;;;20.55;72.00
46223;BME280;31943;51.410;7.564;2023-08-20T05:18:42;100877.13;;;20.58;71.85
46223;BME280;31943;51.410;7.564;2023-08-20T05:21:10;100873.50;;;20.63;71.89
46223;BME280;31943;51.410;7.564;2023-08-20T05:23:39;100870.72;;;20.69;72.27
46223;BME280;31943;51.410;7.564;2023-08-20T05:26:05;100868.00;;;20.72;71.56
46223;BME280;31943;51.410;7.564;2023-08-20T05:28:32;100873.19;;;20.77;71.76
46223;BME280;31943;51.410;7.564;2023-08-20T05:30:59;100873.19;;;20.77;71.79
46223;BME280;31943;51.410;7.564;2023-08-20T05:33:26;100882.00;;;20.79;71.97
46223;BME280;31943;51.410;7.564;2023-08-20T05:35:52;100882.00;;;20.79;72.25
46223;BME280;31943;51.410;7.564;2023-08-20T05:38:18;100881.03;;;20.83;72.56
46223;BME280;31943;51.410;7.564;2023-08-20T05:40:44;100880.09;;;20.86;72.28
46223;BME280;31943;51.410;7.564;2023-08-20T05:43:11;100875.66;;;20.86;72.34
46223;BME280;31943;51.410;7.564;2023-08-20T05:45:39;100879.19;;;20.87;72.78
46223;BME280;31943;51.410;7.564;2023-08-20T05:48:05;100886.16;;;20.91;73.02
46223;BME280;31943;51.410;7.564;2023-08-20T05:50:32;100889.66;;;20.93;73.02
46223;BME280;31943;51.410;7.564;2023-08-20T05:53:01;100888.78;;;20.92;73.15
46223;BME280;31943;51.410;7.564;2023-08-20T05:55:26;100891.44;;;20.92;73.00
46223;BME280;31943;51.410;7.564;2023-08-20T05:57:52;100890.59;;;20.90;73.13
46223;BME280;31943;51.410;7.564;2023-08-20T06:00:19;100893.38;;;20.84;72.66
46223;BME280;31943;51.410;7.564;2023-08-20T06:02:47;100896.06;;;20.83;73.36
46223;BME280;31943;51.410;7.564;2023-08-20T06:05:15;100887.25;;;20.82;73.07
46223;BME280;31943;51.410;7.564;2023-08-20T06:07:40;100884.59;;;20.82;73.53
46223;BME280;31943;51.410;7.564;2023-08-20T06:10:07;100882.81;;;20.83;72.94
46223;BME280;31943;51.410;7.564;2023-08-20T06:12:33;100885.47;;;20.83;73.70
46223;BME280;31943;51.410;7.564;2023-08-20T06:15:01;100878.22;;;20.89;73.18
46223;BME280;31943;51.410;7.564;2023-08-20T06:17:28;100884.31;;;20.94;73.46
46223;BME280;31943;51.410;7.564;2023-08-20T06:19:56;100888.63;;;20.99;73.07
46223;BME280;31943;51.410;7.564;2023-08-20T06:22:23;100892.94;;;21.04;72.92
46223;BME280;31943;51.410;7.564;2023-08-20T06:24:49;100884.91;;;21.07;73.38
46223;BME280;31943;51.410;7.564;2023-08-20T06:27:15;100885.81;;;21.06;72.96
46223;BME280;31943;51.410;7.564;2023-08-20T06:29:41;100885.78;;;21.08;73.21
46223;BME280;31943;51.410;7.564;2023-08-20T06:32:06;100887.41;;;21.15;72.98
46223;BME280;31943;51.410;7.564;2023-08-20T06:34:34;100883.69;;;21.21;72.48
46223;BME280;31943;51.410;7.564;2023-08-20T06:37:02;100888.03;;;21.25;72.70
46223;BME280;31943;51.410;7.564;2023-08-20T06:39:30;100879.03;;;21.30;72.49
46223;BME280;31943;51.410;7.564;2023-08-20T06:42:09;100888.75;;;21.31;72.93
46223;BME280;31943;51.410;7.564;2023-08-20T06:44:35;100887.00;;;21.30;72.80
46223;BME280;31943;51.410;7.564;2023-08-20T06:47:01;100889.66;;;21.30;72.84
46223;BME280;31943;51.410;7.564;2023-08-20T06:49:29;100886.81;;;21.38;73.22
46223;BME280;31943;51.410;7.564;2023-08-20T06:51:57;100890.13;;;21.49;72.80
46223;BME280;31943;51.410;7.564;2023-08-20T06:54:24;100891.72;;;21.57;72.55
46223;BME280;31943;51.410;7.564;2023-08-20T06:56:51;100889.84;;;21.60;72.73
46223;BME280;31943;51.410;7.564;2023-08-20T06:59:17;100892.31;;;21.68;72.61
46223;BME280;31943;51.410;7.564;2023-08-20T07:01:43;100890.41;;;21.73;72.42
46223;BME280;31943;51.410;7.564;2023-08-20T07:04:09;100886.03;;;21.72;72.63
46223;BME280;31943;51.410;7.564;2023-08-20T07:06:35;100890.34;;;21.76;72.88
46223;BME280;31943;51.410;7.564;2023-08-20T07:09:00;100898.19;;;21.81;72.99
46223;BME280;31943;51.410;7.564;2023-08-20T07:11:30;100887.47;;;21.84;73.01
46223;BME280;31943;51.410;7.564;2023-08-20T07:13:55;100891.75;;;21.89;72.64
46223;BME280;31943;51.410;7.564;2023-08-20T07:16:22;100896.00;;;21.95;72.26
46223;BME280;31943;51.410;7.564;2023-08-20T07:18:48;100892.34;;;21.99;72.29
46223;BME280;31943;51.410;7.564;2023-08-20T07:21:14;100894.78;;;22.08;72.25
46223;BME280;31943;51.410;7.564;2023-08-20T07:23:40;100892.72;;;22.18;72.36
46223;BME280;31943;51.410;7.564;2023-08-20T07:26:07;100890.81;;;22.25;72.35
46223;BME280;31943;51.410;7.564;2023-08-20T07:28:36;100886.00;;;22.38;72.24
46223;BME280;31943;51.410;7.564;2023-08-20T07:31:03;100888.53;;;22.42;71.82
46223;BME280;31943;51.410;7.564;2023-08-20T07:33:29;100888.31;;;22.50;71.43
46223;BME280;31943;51.410;7.564;2023-08-20T07:35:54;100886.25;;;22.60;71.15
46223;BME280;31943;51.410;7.564;2023-08-20T07:38:20;100884.16;;;22.71;70.87
46223;BME280;31943;51.410;7.564;2023-08-20T07:40:46;100881.84;;;22.88;70.66
46223;BME280;31943;51.410;7.564;2023-08-20T07:43:12;100880.47;;;23.05;70.62
46223;BME280;31943;51.410;7.564;2023-08-20T07:45:40;100886.31;;;23.16;69.74
46223;BME280;31943;51.410;7.564;2023-08-20T07:48:10;100883.41;;;23.24;69.43
46223;BME280;31943;51.410;7.564;2023-08-20T07:50:36;100888.53;;;23.30;69.08
46223;BME280;31943;51.410;7.564;2023-08-20T07:53:02;100886.41;;;23.41;69.21
46223;BME280;31943;51.410;7.564;2023-08-20T07:55:29;100879.78;;;23.53;68.41
46223;BME280;31943;51.410;7.564;2023-08-20T07:57:55;100882.72;;;23.72;68.65
46223;BME280;31943;51.410;7.564;2023-08-20T08:00:21;100881.38;;;23.85;68.13
46223;BME280;31943;51.410;7.564;2023-08-20T08:02:49;100880.81;;;24.01;67.74
46223;BME280;31943;51.410;7.564;2023-08-20T08:05:16;100882.94;;;24.16;67.74
46223;BME280;31943;51.410;7.564;2023-08-20T08:07:43;100887.72;;;24.32;67.06
46223;BME280;31943;51.410;7.564;2023-08-20T08:10:09;100879.44;;;24.39;66.88
46223;BME280;31943;51.410;7.564;2023-08-20T08:12:35;100881.44;;;24.58;66.45
46223;BME280;31943;51.410;7.564;2023-08-20T08:15:00;100877.38;;;24.71;66.08
46223;BME280;31943;51.410;7.564;2023-08-20T08:17:27;100890.94;;;24.89;65.50
46223;BME280;31943;51.410;7.564;2023-08-20T08:19:54;100887.84;;;24.99;64.65
46223;BME280;31943;51.410;7.564;2023-08-20T08:22:21;100899.09;;;25.08;64.56
46223;BME280;31943;51.410;7.564;2023-08-20T08:24:48;100890.41;;;25.24;64.36
46223;BME280;31943;51.410;7.564;2023-08-20T08:27:15;100892.59;;;25.37;63.70
46223;BME280;31943;51.410;7.564;2023-08-20T08:29:41;100899.28;;;25.47;62.86
46223;BME280;31943;51.410;7.564;2023-08-20T08:32:06;100896.16;;;25.58;62.87
46223;BME280;31943;51.410;7.564;2023-08-20T08:34:33;100900.03;;;25.71;62.12
46223;BME280;31943;51.410;7.564;2023-08-20T08:37:01;100902.06;;;25.87;61.94
46223;BME280;31943;51.410;7.564;2023-08-20T08:39:28;100899.78;;;25.99;61.48
46223;BME280;31943;51.410;7.564;2023-08-20T08:41:58;100897.47;;;26.11;61.02
46223;BME280;31943;51.410;7.564;2023-08-20T08:44:25;100889.19;;;26.17;61.19
46223;BME280;31943;51.410;7.564;2023-08-20T08:46:52;100890.44;;;26.29;61.50
46223;BME280;31943;51.410;7.564;2023-08-20T08:49:19;100883.66;;;26.40;60.21
46223;BME280;31943;51.410;7.564;2023-08-20T08:51:46;100880.53;;;26.50;59.80
46223;BME280;31943;51.410;7.564;2023-08-20T08:54:15;100892.72;;;26.57;58.08
46223;BME280;31943;51.410;7.564;2023-08-20T08:56:44;100881.03;;;26.58;56.44
46223;BME280;31943;51.410;7.564;2023-08-20T08:59:10;100881.91;;;26.60;55.61
46223;BME280;31943;51.410;7.564;2023-08-20T09:01:38;100885.94;;;26.69;54.74
46223;BME280;31943;51.410;7.564;2023-08-20T09:04:04;100884.44;;;26.82;53.92
46223;BME280;31943;51.410;7.564;2023-08-20T09:06:44;100889.97;;;26.96;54.18
46223;BME280;31943;51.410;7.564;2023-08-20T09:09:10;100888.59;;;27.07;54.04
46223;BME280;31943;51.410;7.564;2023-08-20T09:11:38;100892.72;;;27.14;53.85
46223;BME280;31943;51.410;7.564;2023-08-20T09:14:03;100897.09;;;26.97;54.27
46223;BME280;31943;51.410;7.564;2023-08-20T09:16:30;100892.81;;;26.74;55.00
46223;BME280;31943;51.410;7.564;2023-08-20T09:18:59;100890.81;;;26.60;56.21
46223;BME280;31943;51.410;7.564;2023-08-20T09:21:27;100890.97;;;26.37;55.85
46223;BME280;31943;51.410;7.564;2023-08-20T09:23:53;100885.78;;;26.13;56.05
46223;BME280;31943;51.410;7.564;2023-08-20T09:26:20;100887.53;;;25.94;56.68
46223;BME280;31943;51.410;7.564;2023-08-20T09:28:47;100894.25;;;25.82;57.71
46223;BME280;31943;51.410;7.564;2023-08-20T09:31:14;100891.38;;;25.87;58.67
46223;BME280;31943;51.410;7.564;2023-08-20T09:33:49;100891.53;;;25.83;57.68
46223;BME280;31943;51.410;7.564;2023-08-20T09:36:16;100883.91;;;25.95;57.39
46223;BME280;31943;51.410;7.564;2023-08-20T09:38:43;100891.16;;;26.32;55.09
46223;BME280;31943;51.410;7.564;2023-08-20T09:41:10;100892.38;;;26.65;53.70
46223;BME280;31943;51.410;7.564;2023-08-20T09:43:39;100891.38;;;26.86;52.44
46223;BME280;31943;51.410;7.564;2023-08-20T09:46:09;100891.44;;;27.03;50.87
46223;BME280;31943;51.410;7.564;2023-08-20T09:48:41;100886.91;;;27.23;50.61
46223;BME280;31943;51.410;7.564;2023-08-20T09:51:11;100882.41;;;27.42;50.58
46223;BME280;31943;51.410;7.564;2023-08-20T09:53:42;100897.00;;;27.54;50.77
46223;BME280;31943;51.410;7.564;2023-08-20T09:56:15;100899.56;;;27.56;49.22
46223;BME280;31943;51.410;7.564;2023-08-20T09:58:44;100900.22;;;27.61;49.07
46223;BME280;31943;51.410;7.564;2023-08-20T10:01:12;100905.97;;;27.71;49.41
46223;BME280;31943;51.410;7.564;2023-08-20T10:03:38;100905.75;;;27.75;48.54
46223;BME280;31943;51.410;7.564;2023-08-20T10:06:04;100906.31;;;27.82;48.39
46223;BME280;31943;51.410;7.564;2023-08-20T10:08:31;100904.84;;;27.94;48.73
46223;BME280;31943;51.410;7.564;2023-08-20T10:10:56;100901.69;;;28.03;48.32
46223;BME280;31943;51.410;7.564;2023-08-20T10:13:22;100899.78;;;28.05;48.63
46223;BME280;31943;51.410;7.564;2023-08-20T10:15:51;100905.16;;;28.05;48.99
46223;BME280;31943;51.410;7.564;2023-08-20T10:18:20;100899.66;;;28.24;48.84
46223;BME280;31943;51.410;7.564;2023-08-20T10:20:46;100898.75;;;28.41;49.01
46223;BME280;31943;51.410;7.564;2023-08-20T10:23:13;100900.56;;;28.58;48.90
46223;BME280;31943;51.410;7.564;2023-08-20T10:25:42;100897.00;;;28.73;47.84
46223;BME280;31943;51.410;7.564;2023-08-20T10:28:12;100899.44;;;28.78;46.96
46223;BME280;31943;51.410;7.564;2023-08-20T10:30:38;100893.38;;;28.90;47.26
46223;BME280;31943;51.410;7.564;2023-08-20T10:33:04;100891.97;;;28.99;46.06
46223;BME280;31943;51.410;7.564;2023-08-20T10:35:47;100893.22;;;29.09;45.78
46223;BME280;31943;51.410;7.564;2023-08-20T10:38:14;100886.53;;;29.16;46.70
46223;BME280;31943;51.410;7.564;2023-08-20T10:40:48;100892.69;;;29.18;46.21
46223;BME280;31943;51.410;7.564;2023-08-20T10:43:26;100887.91;;;29.24;45.89
46223;BME280;31943;51.410;7.564;2023-08-20T10:46:03;100897.81;;;29.23;44.52
46223;BME280;31943;51.410;7.564;2023-08-20T10:48:30;100896.06;;;29.22;44.97
46223;BME280;31943;51.410;7.564;2023-08-20T10:50:58;100898.81;;;29.05;46.22
46223;BME280;31943;51.410;7.564;2023-08-20T10:53:24;100892.25;;;28.94;47.07
46223;BME280;31943;51.410;7.564;2023-08-20T10:55:51;100896.25;;;29.03;46.62
46223;BME280;31943;51.410;7.564;2023-08-20T10:58:17;100892.44;;;29.07;46.79
46223;BME280;31943;51.410;7.564;2023-08-20T11:00:44;100886.88;;;29.10;45.91
46223;BME280;31943;51.410;7.564;2023-08-20T11:03:10;100896.31;;;29.02;46.93
46223;BME280;31943;51.410;7.564;2023-08-20T11:05:36;100890.69;;;28.74;46.98
46223;BME280;31943;51.410;7.564;2023-08-20T11:08:03;100897.47;;;28.82;47.10
46223;BME280;31943;51.410;7.564;2023-08-20T11:10:31;100890.59;;;28.76;46.28
46223;BME280;31943;51.410;7.564;2023-08-20T11:12:58;100893.88;;;28.81;46.97
46223;BME280;31943;51.410;7.564;2023-08-20T11:15:24;100885.16;;;28.93;46.15
46223;BME280;31943;51.410;7.564;2023-08-20T11:17:50;100884.91;;;29.14;45.83
46223;BME280;31943;51.410;7.564;2023-08-20T11:20:17;100892.25;;;29.26;44.75
46223;BME280;31943;51.410;7.564;2023-08-20T11:22:43;100895.13;;;28.91;45.01
46223;BME280;31943;51.410;7.564;2023-08-20T11:25:14;100897.94;;;28.56;45.82
46223;BME280;31943;51.410;7.564;2023-08-20T11:27:41;100899.69;;;28.40;47.32
46223;BME280;31943;51.410;7.564;2023-08-20T11:30:09;100894.34;;;28.23;46.56
46223;BME280;31943;51.410;7.564;2023-08-20T11:32:35;100891.47;;;28.10;47.83
46223;BME280;31943;51.410;7.564;2023-08-20T11:35:01;100890.63;;;28.09;47.12
46223;BME280;31943;51.410;7.564;2023-08-20T11:37:28;100892.41;;;28.09;46.95
46223;BME280;31943;51.410;7.564;2023-08-20T11:39:54;100899.84;;;28.04;47.60
46223;BME280;31943;51.410;7.564;2023-08-20T11:42:22;100895.69;;;27.98;48.36
46223;BME280;31943;51.410;7.564;2023-08-20T11:44:48;100896.59;;;28.14;48.28
46223;BME280;31943;51.410;7.564;2023-08-20T11:47:15;100895.97;;;28.27;48.19
46223;BME280;31943;51.410;7.564;2023-08-20T11:49:41;100895.66;;;28.49;47.51
46223;BME280;31943;51.410;7.564;2023-08-20T11:52:07;100888.09;;;28.73;46.63
46223;BME280;31943;51.410;7.564;2023-08-20T11:54:33;100891.13;;;28.98;46.58
46223;BME280;31943;51.410;7.564;2023-08-20T11:57:02;100884.63;;;29.18;45.99
46223;BME280;31943;51.410;7.564;2023-08-20T11:59:30;100875.09;;;29.29;44.57
46223;BME280;31943;51.410;7.564;2023-08-20T12:02:00;100881.84;;;29.20;45.28
46223;BME280;31943;51.410;7.564;2023-08-20T12:04:28;100876.19;;;29.09;44.66
46223;BME280;31943;51.410;7.564;2023-08-20T12:07:04;100878.59;;;29.15;45.99
46223;BME280;31943;51.410;7.564;2023-08-20T12:09:31;100877.13;;;29.40;45.67
46223;BME280;31943;51.410;7.564;2023-08-20T12:11:56;100873.88;;;29.34;43.83
46223;BME280;31943;51.410;7.564;2023-08-20T12:14:22;100878.91;;;29.25;45.29
46223;BME280;31943;51.410;7.564;2023-08-20T12:16:50;100873.19;;;29.31;45.92
46223;BME280;31943;51.410;7.564;2023-08-20T12:19:16;100885.53;;;29.49;45.69
46223;BME280;31943;51.410;7.564;2023-08-20T12:21:43;100882.16;;;29.46;45.85
46223;BME280;31943;51.410;7.564;2023-08-20T12:24:09;100879.88;;;29.54;45.40
46223;BME280;31943;51.410;7.564;2023-08-20T12:26:35;100879.41;;;29.62;45.38
46223;BME280;31943;51.410;7.564;2023-08-20T12:29:02;100883.03;;;29.76;45.69
46223;BME280;31943;51.410;7.564;2023-08-20T12:31:29;100877.28;;;29.83;45.89
46223;BME280;31943;51.410;7.564;2023-08-20T12:33:57;100881.81;;;29.96;44.82
46223;BME280;31943;51.410;7.564;2023-08-20T12:36:22;100875.97;;;29.90;44.89
46223;BME280;31943;51.410;7.564;2023-08-20T12:38:48;100877.00;;;29.87;45.45
46223;BME280;31943;51.410;7.564;2023-08-20T12:41:15;100874.44;;;29.86;44.97
46223;BME280;31943;51.410;7.564;2023-08-20T12:43:40;100871.59;;;29.73;44.79
46223;BME280;31943;51.410;7.564;2023-08-20T12:46:06;100860.38;;;29.81;45.22
46223;BME280;31943;51.410;7.564;2023-08-20T12:48:32;100872.50;;;30.02;45.56